createdAt,value
2023-01-19T00:00:20.505Z,99816.50
2023-01-19T00:00:52.087Z,99826.34
2023-01-19T00:01:24.478Z,99817.13
2023-01-19T00:01:56.031Z,99833.50
2023-01-19T00:02:27.644Z,99821.38
2023-01-19T00:02:59.187Z,99819.56
2023-01-19T00:03:30.749Z,99821.38
2023-01-19T00:04:02.517Z,99821.75
2023-01-19T00:04:34.021Z,99820.13
2023-01-19T00:05:06.220Z,99821.38
2023-01-19T00:05:37.803Z,99825.00
2023-01-19T00:06:10.147Z,99811.72
2023-01-19T00:06:41.883Z,99815.78
2023-01-19T00:07:13.537Z,99828.25
2023-01-19T00:07:45.922Z,99820.94
2023-01-19T00:08:17.732Z,99825.53
2023-01-19T00:08:52.318Z,99820.56
2023-01-19T00:09:23.894Z,99816.59
2023-01-19T00:09:55.489Z,99814.97
2023-01-19T00:10:27.009Z,99822.19
2023-01-19T00:10:58.590Z,99815.16
2023-01-19T00:11:30.182Z,99816.97
2023-01-19T00:12:01.846Z,99814.50
2023-01-19T00:12:33.631Z,99820.13
2023-01-19T00:13:05.253Z,99805.28
2023-01-19T00:13:36.960Z,99809.19
2023-01-19T00:14:08.497Z,99804.47
2023-01-19T00:14:40.069Z,99804.94
2023-01-19T00:15:12.041Z,99812.63
2023-01-19T00:15:43.872Z,99814.78
2023-01-19T00:16:19.430Z,99813.78
2023-01-19T00:16:51.107Z,99816.69
2023-01-19T00:17:22.808Z,99814.38
2023-01-19T00:17:54.334Z,99817.31
2023-01-19T00:18:25.931Z,99816.16
2023-01-19T00:18:57.514Z,99814.38
2023-01-19T00:19:29.505Z,99817.97
2023-01-19T00:20:01.299Z,99816.97
2023-01-19T00:20:32.919Z,99820.75
2023-01-19T00:21:04.598Z,99816.16
2023-01-19T00:21:36.258Z,99821.88
2023-01-19T00:22:07.813Z,99816.34
2023-01-19T00:22:39.353Z,99813.88
2023-01-19T00:23:10.928Z,99820.31
2023-01-19T00:23:43.854Z,99818.31
2023-01-19T00:24:15.488Z,99816.97
2023-01-19T00:24:47.267Z,99821.75
2023-01-19T00:25:18.812Z,99818.97
2023-01-19T00:25:51.311Z,99803.88
2023-01-19T00:26:22.828Z,99816.81
2023-01-19T00:26:54.389Z,99817.31
2023-01-19T00:27:25.940Z,99818.31
2023-01-19T00:27:58.875Z,99811.44
2023-01-19T00:28:32.153Z,99820.31
2023-01-19T00:29:04.757Z,99821.47
2023-01-19T00:29:36.445Z,99821.28
2023-01-19T00:30:08.610Z,99815.16
2023-01-19T00:30:41.357Z,99808.91
2023-01-19T00:31:12.981Z,99817.41
2023-01-19T00:31:44.755Z,99819.66
2023-01-19T00:32:17.884Z,99823.66
2023-01-19T00:32:49.768Z,99824.47
2023-01-19T00:33:21.375Z,99825.47
2023-01-19T00:33:53.165Z,99825.63
2023-01-19T00:34:24.813Z,99830.25
2023-01-19T00:34:56.918Z,99825.28
2023-01-19T00:35:28.579Z,99824.66
2023-01-19T00:36:00.122Z,99825.09
2023-01-19T00:36:32.294Z,99826.28
2023-01-19T00:37:04.376Z,99829.69
2023-01-19T00:37:35.921Z,99834.59
2023-01-19T00:38:07.484Z,99838.19
2023-01-19T00:38:39.093Z,99830.50
2023-01-19T00:39:10.862Z,99832.00
2023-01-19T00:39:43.527Z,99828.06
2023-01-19T00:40:15.302Z,99835.44
2023-01-19T00:40:47.844Z,99838.25
2023-01-19T00:41:39.836Z,99830.75
2023-01-19T00:42:31.020Z,99834.31
2023-01-19T00:43:04.110Z,99835.44
2023-01-19T00:43:35.632Z,99834.72
2023-01-19T00:44:07.348Z,99831.19
2023-01-19T00:44:38.929Z,99840.50
2023-01-19T00:45:13.021Z,99832.63
2023-01-19T00:45:45.751Z,99832.81
2023-01-19T00:46:17.297Z,99837.78
2023-01-19T00:46:48.837Z,99828.56
2023-01-19T00:47:20.370Z,99826.56
2023-01-19T00:47:57.184Z,99837.06
2023-01-19T00:48:29.561Z,99835.78
2023-01-19T00:49:01.239Z,99839.94
2023-01-19T00:49:32.801Z,99842.28
2023-01-19T00:50:04.818Z,99830.91
2023-01-19T00:50:36.419Z,99835.78
2023-01-19T00:51:08.019Z,99827.66
2023-01-19T00:51:39.610Z,99833.81
2023-01-19T00:52:11.438Z,99839.41
2023-01-19T00:52:44.386Z,99833.09
2023-01-19T00:53:15.981Z,99835.78
2023-01-19T00:53:47.621Z,99832.34
2023-01-19T00:54:19.317Z,99836.59
2023-01-19T00:54:50.927Z,99834.34
2023-01-19T00:55:23.326Z,99833.81
2023-01-19T00:55:55.097Z,99826.13
2023-01-19T00:56:27.195Z,99831.63
2023-01-19T00:56:58.775Z,99829.84
2023-01-19T00:57:30.319Z,99835.44
2023-01-19T00:58:03.112Z,99825.03
2023-01-19T00:58:35.808Z,99823.41
2023-01-19T00:59:07.555Z,99829.09
2023-01-19T00:59:39.156Z,99826.75
2023-01-19T01:00:16.242Z,99824.94
2023-01-19T01:00:47.930Z,99826.13
2023-01-19T01:01:19.553Z,99822.50
2023-01-19T01:01:51.366Z,99819.97
2023-01-19T01:02:23.284Z,99825.13
2023-01-19T01:02:55.152Z,99826.28
2023-01-19T01:03:28.083Z,99828.56
2023-01-19T01:04:02.823Z,99818.00
2023-01-19T01:04:34.477Z,99819.53
2023-01-19T01:05:06.836Z,99818.88
2023-01-19T01:05:41.261Z,99818.06
2023-01-19T01:06:12.770Z,99817.38
2023-01-19T01:06:44.376Z,99822.97
2023-01-19T01:07:15.914Z,99818.81
2023-01-19T01:07:49.606Z,99818.63
2023-01-19T01:08:21.224Z,99822.88
2023-01-19T01:08:52.863Z,99819.91
2023-01-19T01:09:24.616Z,99825.16
2023-01-19T01:09:57.438Z,99826.50
2023-01-19T01:10:29.720Z,99815.00
2023-01-19T01:11:01.421Z,99826.31
2023-01-19T01:11:32.942Z,99824.81
2023-01-19T01:12:04.765Z,99822.34
2023-01-19T01:12:38.148Z,99823.16
2023-01-19T01:13:21.229Z,99822.00
2023-01-19T01:13:53.308Z,99824.31
2023-01-19T01:14:25.129Z,99822.69
2023-01-19T01:14:56.715Z,99824.16
2023-01-19T01:15:29.607Z,99823.16
2023-01-19T01:16:01.198Z,99824.47
2023-01-19T01:16:32.835Z,99827.44
2023-01-19T01:17:04.405Z,99823.81
2023-01-19T01:17:36.135Z,99817.91
2023-01-19T01:18:07.752Z,99818.41
2023-01-19T01:18:39.330Z,99816.28
2023-01-19T01:19:11.623Z,99824.47
2023-01-19T01:19:43.183Z,99819.22
2023-01-19T01:20:22.962Z,99814.25
2023-01-19T01:21:04.513Z,99813.25
2023-01-19T01:21:37.296Z,99817.22
2023-01-19T01:22:09.908Z,99817.22
2023-01-19T01:22:45.217Z,99811.63
2023-01-19T01:23:16.835Z,99819.84
2023-01-19T01:23:48.352Z,99809.63
2023-01-19T01:24:20.794Z,99819.03
2023-01-19T01:24:55.135Z,99824.47
2023-01-19T01:25:28.028Z,99817.59
2023-01-19T01:25:59.612Z,99822.47
2023-01-19T01:26:31.177Z,99827.25
2023-01-19T01:27:02.771Z,99820.53
2023-01-19T01:27:34.557Z,99817.47
2023-01-19T01:28:08.696Z,99820.44
2023-01-19T01:28:40.263Z,99819.44
2023-01-19T01:29:11.843Z,99825.50
2023-01-19T01:29:46.476Z,99830.09
2023-01-19T01:30:18.926Z,99820.97
2023-01-19T01:30:55.569Z,99826.94
2023-01-19T01:31:27.424Z,99816.91
2023-01-19T01:31:59.205Z,99817.72
2023-01-19T01:32:30.781Z,99821.78
2023-01-19T01:33:02.725Z,99823.31
2023-01-19T01:33:41.143Z,99820.63
2023-01-19T01:34:13.570Z,99821.50
2023-01-19T01:34:45.150Z,99825.66
2023-01-19T01:35:16.808Z,99821.78
2023-01-19T01:35:52.101Z,99826.56
2023-01-19T01:36:24.142Z,99818.00
2023-01-19T01:36:55.897Z,99826.41
2023-01-19T01:37:29.052Z,99822.97
2023-01-19T01:38:01.134Z,99821.78
2023-01-19T01:38:32.676Z,99822.97
2023-01-19T01:39:04.871Z,99824.59
2023-01-19T01:39:37.051Z,99815.72
2023-01-19T01:40:12.245Z,99819.53
2023-01-19T01:40:46.226Z,99818.34
2023-01-19T01:41:17.757Z,99818.00
2023-01-19T01:41:49.481Z,99817.28
2023-01-19T01:42:28.153Z,99817.47
2023-01-19T01:42:59.986Z,99818.72
2023-01-19T01:43:49.195Z,99818.91
2023-01-19T01:44:50.038Z,99820.91
2023-01-19T01:45:41.011Z,99814.25
2023-01-19T01:46:15.432Z,99817.22
2023-01-19T01:46:47.274Z,99820.03
2023-01-19T01:47:28.988Z,99828.06
2023-01-19T01:48:16.011Z,99818.13
2023-01-19T01:49:08.671Z,99824.19
2023-01-19T01:49:40.264Z,99818.13
2023-01-19T01:50:18.156Z,99823.38
2023-01-19T01:51:19.343Z,99827.81
2023-01-19T01:51:53.385Z,99821.84
2023-01-19T01:52:26.787Z,99819.56
2023-01-19T01:53:07.589Z,99823.81
2023-01-19T01:53:40.065Z,99811.91
2023-01-19T01:54:25.099Z,99819.75
2023-01-19T01:54:58.119Z,99819.03
2023-01-19T01:55:31.552Z,99818.22
2023-01-19T01:56:05.884Z,99819.50
2023-01-19T01:56:43.585Z,99814.41
2023-01-19T01:57:15.413Z,99820.66
2023-01-19T01:57:52.048Z,99814.41
2023-01-19T01:58:23.678Z,99818.66
2023-01-19T01:58:55.318Z,99822.09
2023-01-19T01:59:34.767Z,99824.28
2023-01-19T02:00:07.023Z,99820.66
2023-01-19T02:00:58.645Z,99817.31
2023-01-19T02:01:48.926Z,99815.34
2023-01-19T02:02:44.754Z,99818.63
2023-01-19T02:03:16.702Z,99822.84
2023-01-19T02:03:48.355Z,99819.59
2023-01-19T02:04:20.000Z,99826.19
2023-01-19T02:04:56.870Z,99819.94
2023-01-19T02:05:33.680Z,99815.06
2023-01-19T02:06:07.277Z,99825.19
2023-01-19T02:06:57.774Z,99820.75
2023-01-19T02:08:03.624Z,99819.25
2023-01-19T02:09:08.996Z,99812.06
2023-01-19T02:09:59.545Z,99814.00
2023-01-19T02:10:50.525Z,99819.50
2023-01-19T02:11:41.411Z,99816.25
2023-01-19T02:12:31.642Z,99815.25
2023-01-19T02:13:21.799Z,99813.00
2023-01-19T02:13:53.537Z,99815.00
2023-01-19T02:14:25.053Z,99815.63
2023-01-19T02:14:56.709Z,99818.50
2023-01-19T02:15:28.227Z,99819.06
2023-01-19T02:16:03.498Z,99813.00
2023-01-19T02:16:36.684Z,99817.63
2023-01-19T02:17:08.227Z,99814.00
2023-01-19T02:17:39.823Z,99818.44
2023-01-19T02:18:11.460Z,99816.88
2023-01-19T02:18:43.388Z,99812.28
2023-01-19T02:19:24.449Z,99819.06
2023-01-19T02:19:56.260Z,99816.44
2023-01-19T02:20:29.433Z,99816.88
2023-01-19T02:21:30.061Z,99811.91
2023-01-19T02:22:09.906Z,99813.91
2023-01-19T02:22:49.616Z,99815.63
2023-01-19T02:23:31.899Z,99812.00
2023-01-19T02:24:03.605Z,99810.84
2023-01-19T02:24:35.915Z,99814.25
2023-01-19T02:25:07.828Z,99805.59
2023-01-19T02:25:42.524Z,99814.00
2023-01-19T02:26:18.727Z,99812.38
2023-01-19T02:26:50.716Z,99812.38
2023-01-19T02:27:22.389Z,99816.06
2023-01-19T02:27:54.064Z,99811.56
2023-01-19T02:28:27.001Z,99812.09
2023-01-19T02:29:00.854Z,99817.34
2023-01-19T02:29:32.643Z,99811.28
2023-01-19T02:30:04.910Z,99816.06
2023-01-19T02:30:38.847Z,99810.00
2023-01-19T02:31:10.691Z,99811.19
2023-01-19T02:31:42.722Z,99812.00
2023-01-19T02:32:14.402Z,99811.38
2023-01-19T02:32:46.000Z,99819.88
2023-01-19T02:33:17.573Z,99810.84
2023-01-19T02:33:49.609Z,99818.88
2023-01-19T02:34:22.672Z,99814.81
2023-01-19T02:34:55.006Z,99815.25
2023-01-19T02:35:26.769Z,99817.44
2023-01-19T02:35:58.297Z,99808.03
2023-01-19T02:36:56.428Z,99812.47
2023-01-19T02:37:30.189Z,99806.94
2023-01-19T02:38:02.785Z,99808.03
2023-01-19T02:38:35.290Z,99810.00
2023-01-19T02:39:07.444Z,99815.72
2023-01-19T02:39:45.701Z,99804.03
2023-01-19T02:40:20.160Z,99809.84
2023-01-19T02:40:52.105Z,99821.88
2023-01-19T02:41:28.604Z,99805.88
2023-01-19T02:42:04.110Z,99815.19
2023-01-19T02:42:44.040Z,99813.19
2023-01-19T02:43:17.440Z,99811.56
2023-01-19T02:43:49.690Z,99816.34
2023-01-19T02:44:23.027Z,99822.69
2023-01-19T02:44:55.929Z,99816.34
2023-01-19T02:45:27.827Z,99824.13
2023-01-19T02:45:59.403Z,99811.38
2023-01-19T02:46:31.125Z,99808.13
2023-01-19T02:47:03.854Z,99812.38
2023-01-19T02:47:45.777Z,99825.66
2023-01-19T02:48:19.662Z,99815.25
2023-01-19T02:48:51.265Z,99815.06
2023-01-19T02:49:23.746Z,99807.81
2023-01-19T02:49:57.026Z,99818.66
2023-01-19T02:50:38.234Z,99821.38
2023-01-19T02:51:18.507Z,99817.84
2023-01-19T02:51:50.234Z,99812.16
2023-01-19T02:52:22.621Z,99814.97
2023-01-19T02:53:06.511Z,99813.59
2023-01-19T02:53:40.647Z,99816.88
2023-01-19T02:55:00.424Z,99814.50
2023-01-19T02:55:32.977Z,99815.69
2023-01-19T02:56:24.918Z,99819.13
2023-01-19T02:57:21.350Z,99823.72
2023-01-19T02:58:09.170Z,99817.13
2023-01-19T02:58:52.036Z,99808.00
2023-01-19T02:59:35.654Z,99816.88
2023-01-19T03:00:32.724Z,99823.28
2023-01-19T03:01:23.945Z,99815.97
2023-01-19T03:02:05.725Z,99816.28
2023-01-19T03:02:52.673Z,99809.41
2023-01-19T03:03:33.697Z,99814.97
2023-01-19T03:04:18.771Z,99812.63
2023-01-19T03:05:04.302Z,99809.13
2023-01-19T03:05:54.416Z,99813.97
2023-01-19T03:06:37.679Z,99816.53
2023-01-19T03:07:16.251Z,99824.13
2023-01-19T03:08:06.196Z,99824.13
2023-01-19T03:08:57.710Z,99822.03
2023-01-19T03:09:33.720Z,99827.28
2023-01-19T03:10:12.848Z,99824.03
2023-01-19T03:11:05.261Z,99822.75
2023-01-19T03:11:40.140Z,99822.44
2023-01-19T03:12:16.105Z,99826.47
2023-01-19T03:13:03.364Z,99828.31
2023-01-19T03:13:48.001Z,99826.59
2023-01-19T03:14:25.194Z,99828.47
2023-01-19T03:15:01.172Z,99815.53
2023-01-19T03:15:45.106Z,99823.41
2023-01-19T03:16:27.363Z,99817.38
2023-01-19T03:17:01.431Z,99825.56
2023-01-19T03:17:33.749Z,99825.22
2023-01-19T03:18:09.074Z,99821.59
2023-01-19T03:18:42.871Z,99818.72
2023-01-19T03:19:22.125Z,99828.91
2023-01-19T03:19:54.308Z,99829.91
2023-01-19T03:20:28.809Z,99828.91
2023-01-19T03:21:04.144Z,99832.25
2023-01-19T03:21:37.415Z,99840.09
2023-01-19T03:22:19.934Z,99830.97
2023-01-19T03:23:00.945Z,99837.53
2023-01-19T03:23:34.967Z,99832.41
2023-01-19T03:24:07.286Z,99833.75
2023-01-19T03:24:42.130Z,99828.53
2023-01-19T03:25:15.247Z,99831.47
2023-01-19T03:25:48.377Z,99830.50
2023-01-19T03:26:25.178Z,99829.84
2023-01-19T03:27:01.507Z,99828.97
2023-01-19T03:27:40.794Z,99828.34
2023-01-19T03:28:14.066Z,99828.06
2023-01-19T03:28:46.364Z,99829.34
2023-01-19T03:29:18.906Z,99836.22
2023-01-19T03:29:53.653Z,99832.97
2023-01-19T03:30:29.228Z,99835.22
2023-01-19T03:31:05.905Z,99835.94
2023-01-19T03:31:38.032Z,99835.56
2023-01-19T03:32:13.176Z,99836.53
2023-01-19T03:32:52.222Z,99841.78
2023-01-19T03:33:27.941Z,99840.81
2023-01-19T03:34:09.769Z,99834.13
2023-01-19T03:34:42.994Z,99828.41
2023-01-19T03:35:16.275Z,99842.16
2023-01-19T03:35:52.817Z,99839.81
2023-01-19T03:36:28.995Z,99839.00
2023-01-19T03:37:03.316Z,99839.50
2023-01-19T03:37:37.933Z,99838.19
2023-01-19T03:38:15.219Z,99839.00
2023-01-19T03:38:48.724Z,99839.19
2023-01-19T03:39:25.141Z,99832.97
2023-01-19T03:39:56.837Z,99840.16
2023-01-19T03:40:30.442Z,99839.50
2023-01-19T03:41:05.219Z,99833.78
2023-01-19T03:41:38.830Z,99833.78
2023-01-19T03:42:14.158Z,99834.13
2023-01-19T03:42:47.140Z,99835.75
2023-01-19T03:43:19.133Z,99830.97
2023-01-19T03:43:52.092Z,99840.47
2023-01-19T03:44:24.799Z,99835.75
2023-01-19T03:44:57.432Z,99841.13
2023-01-19T03:45:30.867Z,99842.63
2023-01-19T03:46:04.175Z,99840.47
2023-01-19T03:46:35.845Z,99835.03
2023-01-19T03:47:09.151Z,99833.91
2023-01-19T03:47:41.254Z,99830.97
2023-01-19T03:48:12.893Z,99841.13
2023-01-19T03:48:45.357Z,99834.94
2023-01-19T03:49:16.976Z,99844.94
2023-01-19T03:49:50.301Z,99841.00
2023-01-19T03:50:27.175Z,99845.22
2023-01-19T03:51:03.305Z,99842.50
2023-01-19T03:51:39.142Z,99845.22
2023-01-19T03:52:10.804Z,99844.41
2023-01-19T03:52:43.868Z,99845.06
2023-01-19T03:53:17.231Z,99840.78
2023-01-19T03:53:50.090Z,99840.16
2023-01-19T03:54:21.667Z,99850.28
2023-01-19T03:54:53.198Z,99833.81
2023-01-19T03:55:25.021Z,99844.75
2023-01-19T03:55:57.068Z,99842.75
2023-01-19T03:56:28.792Z,99848.28
2023-01-19T03:57:00.363Z,99840.63
2023-01-19T03:57:32.322Z,99848.94
2023-01-19T03:58:03.845Z,99847.00
2023-01-19T03:58:35.904Z,99844.41
2023-01-19T03:59:07.505Z,99848.47
2023-01-19T03:59:39.325Z,99846.84
2023-01-19T04:00:11.866Z,99840.78
2023-01-19T04:00:46.312Z,99841.13
2023-01-19T04:01:20.802Z,99846.03
2023-01-19T04:01:52.432Z,99849.28
2023-01-19T04:02:24.717Z,99842.28
2023-01-19T04:02:56.527Z,99839.50
2023-01-19T04:03:28.611Z,99840.16
2023-01-19T04:04:00.190Z,99841.94
2023-01-19T04:04:31.796Z,99847.00
2023-01-19T04:05:03.810Z,99853.25
2023-01-19T04:05:35.525Z,99840.44
2023-01-19T04:06:08.308Z,99844.63
2023-01-19T04:06:40.034Z,99848.53
2023-01-19T04:07:11.828Z,99846.53
2023-01-19T04:07:43.436Z,99845.56
2023-01-19T04:08:15.083Z,99840.03
2023-01-19T04:08:49.202Z,99851.84
2023-01-19T04:09:20.822Z,99852.53
2023-01-19T04:09:52.354Z,99846.59
2023-01-19T04:10:24.018Z,99843.00
2023-01-19T04:10:57.576Z,99851.84
2023-01-19T04:11:29.180Z,99846.59
2023-01-19T04:12:01.976Z,99851.84
2023-01-19T04:12:33.574Z,99851.50
2023-01-19T04:13:05.661Z,99849.88
2023-01-19T04:13:38.029Z,99853.47
2023-01-19T04:14:09.583Z,99845.91
2023-01-19T04:14:41.101Z,99839.03
2023-01-19T04:15:12.832Z,99845.91
2023-01-19T04:15:44.418Z,99843.81
2023-01-19T04:16:20.058Z,99841.72
2023-01-19T04:16:52.115Z,99839.03
2023-01-19T04:17:23.773Z,99845.44
2023-01-19T04:17:57.645Z,99847.53
2023-01-19T04:18:30.192Z,99845.28
2023-01-19T04:19:01.780Z,99846.91
2023-01-19T04:19:33.489Z,99845.91
2023-01-19T04:20:06.053Z,99839.66
2023-01-19T04:20:37.585Z,99844.72
2023-01-19T04:21:09.385Z,99839.94
2023-01-19T04:21:40.982Z,99843.25
2023-01-19T04:22:12.717Z,99844.53
2023-01-19T04:22:44.319Z,99846.19
2023-01-19T04:23:15.895Z,99843.25
2023-01-19T04:23:47.704Z,99843.09
2023-01-19T04:24:19.230Z,99847.81
2023-01-19T04:24:50.944Z,99846.19
2023-01-19T04:25:22.458Z,99845.06
2023-01-19T04:26:01.827Z,99848.97
2023-01-19T04:26:33.357Z,99857.00
2023-01-19T04:27:04.886Z,99850.44
2023-01-19T04:27:37.090Z,99848.34
2023-01-19T04:28:08.607Z,99848.34
2023-01-19T04:28:41.113Z,99854.06
2023-01-19T04:29:14.073Z,99859.97
2023-01-19T04:29:45.624Z,99844.88
2023-01-19T04:30:17.352Z,99853.03
2023-01-19T04:30:50.870Z,99855.38
2023-01-19T04:31:23.379Z,99858.44
2023-01-19T04:31:54.934Z,99858.63
2023-01-19T04:32:26.571Z,99861.41
2023-01-19T04:32:59.700Z,99860.59
2023-01-19T04:33:31.491Z,99858.63
2023-01-19T04:34:03.750Z,99864.22
2023-01-19T04:34:35.439Z,99858.28
2023-01-19T04:35:07.266Z,99861.53
2023-01-19T04:35:39.597Z,99863.97
2023-01-19T04:36:11.150Z,99858.72
2023-01-19T04:36:42.738Z,99861.06
2023-01-19T04:37:14.252Z,99862.22
2023-01-19T04:37:45.778Z,99857.00
2023-01-19T04:38:17.335Z,99851.22
2023-01-19T04:38:49.304Z,99862.34
2023-01-19T04:39:20.913Z,99863.50
2023-01-19T04:39:52.648Z,99861.06
2023-01-19T04:40:24.537Z,99850.75
2023-01-19T04:40:56.100Z,99860.25
2023-01-19T04:41:27.676Z,99859.09
2023-01-19T04:42:00.812Z,99859.25
2023-01-19T04:42:32.410Z,99865.59
2023-01-19T04:43:04.165Z,99851.63
2023-01-19T04:43:35.855Z,99853.94
2023-01-19T04:44:07.442Z,99849.19
2023-01-19T04:44:39.363Z,99856.47
2023-01-19T04:45:13.111Z,99850.88
2023-01-19T04:45:46.177Z,99859.19
2023-01-19T04:46:17.701Z,99851.97
2023-01-19T04:46:51.545Z,99855.94
2023-01-19T04:47:23.127Z,99850.53
2023-01-19T04:47:54.837Z,99853.94
2023-01-19T04:48:26.492Z,99852.31
2023-01-19T04:48:58.004Z,99845.47
2023-01-19T04:49:29.661Z,99846.28
2023-01-19T04:50:01.184Z,99851.16
2023-01-19T04:50:33.015Z,99851.16
2023-01-19T04:51:04.789Z,99853.59
2023-01-19T04:51:36.805Z,99848.38
2023-01-19T04:52:08.404Z,99854.25
2023-01-19T04:52:40.272Z,99844.03
2023-01-19T04:53:13.686Z,99841.94
2023-01-19T04:53:45.560Z,99846.72
2023-01-19T04:54:17.125Z,99845.91
2023-01-19T04:54:49.001Z,99839.88
2023-01-19T04:55:24.761Z,99846.44
2023-01-19T04:55:56.402Z,99844.47
2023-01-19T04:56:28.406Z,99864.78
2023-01-19T04:57:00.187Z,99857.56
2023-01-19T04:57:31.819Z,99862.00
2023-01-19T04:58:03.363Z,99871.31
2023-01-19T04:58:35.351Z,99876.88
2023-01-19T04:59:07.166Z,99872.66
2023-01-19T04:59:38.756Z,99878.53
2023-01-19T05:00:10.971Z,99876.25
2023-01-19T05:00:43.874Z,99872.00
2023-01-19T05:01:15.429Z,99878.06
2023-01-19T05:01:47.338Z,99876.59
2023-01-19T05:02:18.911Z,99881.50
2023-01-19T05:02:50.783Z,99878.53
2023-01-19T05:03:22.928Z,99892.59
2023-01-19T05:03:58.921Z,99885.38
2023-01-19T05:04:30.487Z,99895.41
2023-01-19T05:05:02.433Z,99898.19
2023-01-19T05:05:34.207Z,99904.38
2023-01-19T05:06:06.499Z,99898.78
2023-01-19T05:06:38.304Z,99893.53
2023-01-19T05:07:10.585Z,99896.78
2023-01-19T05:07:43.329Z,99909.94
2023-01-19T05:08:14.963Z,99896.56
2023-01-19T05:08:46.481Z,99904.72
2023-01-19T05:09:19.517Z,99903.44
2023-01-19T05:09:51.088Z,99899.81
2023-01-19T05:10:23.832Z,99907.69
2023-01-19T05:10:57.514Z,99903.09
2023-01-19T05:11:29.079Z,99907.75
2023-01-19T05:12:00.647Z,99909.19
2023-01-19T05:12:33.213Z,99907.41
2023-01-19T05:13:05.569Z,99911.66
2023-01-19T05:13:37.076Z,99908.38
2023-01-19T05:14:08.616Z,99904.94
2023-01-19T05:14:40.344Z,99899.53
2023-01-19T05:15:11.909Z,99904.78
2023-01-19T05:15:43.576Z,99900.53
2023-01-19T05:16:15.201Z,99907.41
2023-01-19T05:16:47.003Z,99897.25
2023-01-19T05:17:18.712Z,99900.88
2023-01-19T05:17:50.310Z,99897.13
2023-01-19T05:18:21.935Z,99903.81
2023-01-19T05:18:53.446Z,99896.94
2023-01-19T05:19:24.962Z,99906.13
2023-01-19T05:19:57.357Z,99896.31
2023-01-19T05:20:28.922Z,99894.31
2023-01-19T05:21:01.922Z,99894.66
2023-01-19T05:21:33.435Z,99897.28
2023-01-19T05:22:05.938Z,99898.09
2023-01-19T05:22:38.457Z,99892.69
2023-01-19T05:23:10.083Z,99900.19
2023-01-19T05:23:41.629Z,99907.41
2023-01-19T05:24:14.145Z,99911.00
2023-01-19T05:24:45.703Z,99884.00
2023-01-19T05:25:17.559Z,99889.41
2023-01-19T05:25:49.104Z,99894.00
2023-01-19T05:26:20.615Z,99895.63
2023-01-19T05:26:52.144Z,99890.69
2023-01-19T05:27:23.778Z,99892.34
2023-01-19T05:27:55.424Z,99899.88
2023-01-19T05:28:28.290Z,99895.63
2023-01-19T05:28:59.946Z,99888.41
2023-01-19T05:29:31.497Z,99895.47
2023-01-19T05:30:05.018Z,99893.66
2023-01-19T05:30:37.160Z,99899.19
2023-01-19T05:31:08.986Z,99910.66
2023-01-19T05:31:40.740Z,99900.53
2023-01-19T05:32:13.613Z,99898.53
2023-01-19T05:32:45.181Z,99897.56
2023-01-19T05:33:17.089Z,99899.00
2023-01-19T05:33:49.050Z,99899.00
2023-01-19T05:34:20.566Z,99906.88
2023-01-19T05:34:52.097Z,99898.47
2023-01-19T05:35:35.338Z,99902.09
2023-01-19T05:36:08.003Z,99904.38
2023-01-19T05:36:39.563Z,99909.31
2023-01-19T05:37:11.599Z,99904.53
2023-01-19T05:37:43.170Z,99904.41
2023-01-19T05:38:17.066Z,99911.13
2023-01-19T05:38:50.695Z,99908.31
2023-01-19T05:39:22.303Z,99912.41
2023-01-19T05:39:54.423Z,99913.69
2023-01-19T05:40:26.311Z,99913.50
2023-01-19T05:40:58.567Z,99920.91
2023-01-19T05:41:30.503Z,99918.09
2023-01-19T05:42:02.050Z,99925.16
2023-01-19T05:42:34.117Z,99924.34
2023-01-19T05:43:05.755Z,99925.31
2023-01-19T05:43:37.350Z,99925.16
2023-01-19T05:44:09.824Z,99932.19
2023-01-19T05:44:42.919Z,99926.59
2023-01-19T05:45:14.537Z,99929.22
2023-01-19T05:45:46.395Z,99924.97
2023-01-19T05:46:17.999Z,99930.56
2023-01-19T05:46:49.618Z,99928.59
2023-01-19T05:47:21.277Z,99930.56
2023-01-19T05:47:54.283Z,99936.97
2023-01-19T05:48:25.921Z,99933.81
2023-01-19T05:48:57.656Z,99931.00
2023-01-19T05:49:29.183Z,99945.22
2023-01-19T05:50:00.786Z,99942.59
2023-01-19T05:50:33.017Z,99943.59
2023-01-19T05:51:05.259Z,99948.38
2023-01-19T05:51:40.518Z,99947.69
2023-01-19T05:52:12.058Z,99954.06
2023-01-19T05:52:43.638Z,99954.53
2023-01-19T05:53:16.429Z,99954.69
2023-01-19T05:53:47.973Z,99951.16
2023-01-19T05:54:19.770Z,99948.19
2023-01-19T05:54:52.065Z,99951.59
2023-01-19T05:55:23.703Z,99946.19
2023-01-19T05:56:03.336Z,99953.88
2023-01-19T05:56:35.852Z,99957.84
2023-01-19T05:57:08.049Z,99952.44
2023-01-19T05:57:39.579Z,99952.09
2023-01-19T05:58:11.235Z,99948.53
2023-01-19T05:58:42.787Z,99945.72
2023-01-19T05:59:15.307Z,99945.91
2023-01-19T05:59:46.847Z,99953.41
2023-01-19T06:00:18.641Z,99952.09
2023-01-19T06:00:50.221Z,99945.22
2023-01-19T06:01:21.845Z,99950.47
2023-01-19T06:01:54.073Z,99942.59
2023-01-19T06:02:28.745Z,99943.28
2023-01-19T06:03:02.465Z,99940.00
2023-01-19T06:03:35.492Z,99945.94
2023-01-19T06:04:07.200Z,99945.59
2023-01-19T06:04:38.735Z,99943.28
2023-01-19T06:05:10.361Z,99945.56
2023-01-19T06:05:41.906Z,99948.84
2023-01-19T06:06:15.026Z,99943.31
2023-01-19T06:06:50.425Z,99942.59
2023-01-19T06:07:24.274Z,99941.78
2023-01-19T06:07:59.319Z,99942.94
2023-01-19T06:08:31.030Z,99940.31
2023-01-19T06:09:02.635Z,99942.94
2023-01-19T06:09:34.479Z,99945.72
2023-01-19T06:10:06.605Z,99949.81
2023-01-19T06:10:38.151Z,99950.97
2023-01-19T06:11:09.696Z,99940.66
2023-01-19T06:11:41.328Z,99953.41
2023-01-19T06:12:13.036Z,99947.34
2023-01-19T06:12:44.581Z,99952.41
2023-01-19T06:13:16.157Z,99949.63
2023-01-19T06:13:48.016Z,99954.69
2023-01-19T06:14:19.905Z,99954.06
2023-01-19T06:14:51.572Z,99954.22
2023-01-19T06:15:23.197Z,99952.09
2023-01-19T06:16:01.069Z,99958.66
2023-01-19T06:16:32.664Z,99955.22
2023-01-19T06:17:06.126Z,99955.03
2023-01-19T06:17:37.813Z,99949.16
2023-01-19T06:18:09.565Z,99951.44
2023-01-19T06:18:41.162Z,99947.00
2023-01-19T06:19:12.792Z,99949.00
2023-01-19T06:19:44.569Z,99952.91
2023-01-19T06:20:16.856Z,99943.28
2023-01-19T06:20:48.843Z,99948.81
2023-01-19T06:21:20.362Z,99951.97
2023-01-19T06:21:52.454Z,99944.56
2023-01-19T06:22:24.561Z,99949.81
2023-01-19T06:22:57.687Z,99947.00
2023-01-19T06:23:32.865Z,99954.22
2023-01-19T06:24:04.797Z,99942.94
2023-01-19T06:24:36.668Z,99948.84
2023-01-19T06:25:09.219Z,99945.59
2023-01-19T06:25:40.726Z,99951.47
2023-01-19T06:26:13.093Z,99953.75
2023-01-19T06:26:44.727Z,99952.09
2023-01-19T06:27:16.325Z,99950.97
2023-01-19T06:27:47.884Z,99957.66
2023-01-19T06:28:19.444Z,99957.31
2023-01-19T06:28:51.343Z,99958.31
2023-01-19T06:29:23.136Z,99957.84
2023-01-19T06:29:54.671Z,99962.72
2023-01-19T06:30:27.072Z,99965.34
2023-01-19T06:30:59.881Z,99965.75
2023-01-19T06:31:31.715Z,99963.94
2023-01-19T06:32:03.410Z,99967.22
2023-01-19T06:32:35.063Z,99978.56
2023-01-19T06:33:06.683Z,99979.09
2023-01-19T06:33:38.204Z,99974.66
2023-01-19T06:34:10.178Z,99972.88
2023-01-19T06:34:43.790Z,99976.25
2023-01-19T06:35:15.463Z,99982.19
2023-01-19T06:35:48.281Z,99978.75
2023-01-19T06:36:20.910Z,99979.84
2023-01-19T06:36:52.452Z,99975.66
2023-01-19T06:37:26.769Z,99985.78
2023-01-19T06:37:58.332Z,99982.66
2023-01-19T06:38:29.976Z,99980.66